EW3345 Elva EE current weather conditions

sailwx.info

Wind from 207 at 1 knots gusting 4

Air temperature 3.3° C
Dewpoint 1.7° C

Last reported at 2020-Jan-17 17:46 UTC.
Time now 2020-Jan-17 18:19 UTC

Location: N 58°16' E 026°28'.
View on Google Maps.

See reports from other nearby stations

  
Tides and Currents Weather Stations Pressure Air Temp Water Temp Dewpoint Dewpoint Depression Visibility Wind Speed Wind Dir Waves Ship Positions
date/time (UTC)wind fromknots sea level pressurealtimeterstation pressurevisibilityair tempwater tempwave heightnotes
2020-Jan-17 17:46 207 1 gusting 4 3.3
2020-Jan-17 17:36 235 4 gusting 7 3.3
2020-Jan-17 17:26 212 8 gusting 11 3.3
2020-Jan-17 17:16 234 4 gusting 7 3.3
2020-Jan-17 17:06 224 4 gusting 7 3.3
2020-Jan-17 16:56 249 4 gusting 9 3.3
2020-Jan-17 16:46 225 5 gusting 7 3.3
2020-Jan-17 16:36 244 4 gusting 7 2.8
2020-Jan-17 16:26 239 3 gusting 6 2.8
2020-Jan-17 16:16 215 2 gusting 5 2.8
2020-Jan-17 16:06 229 2 gusting 4 2.8
2020-Jan-17 15:56 203 2 gusting 6 2.8
2020-Jan-17 15:46 235 3 gusting 6 2.8
2020-Jan-17 15:36 218 1 gusting 3 2.8
2020-Jan-17 15:26 219 0 gusting 2 3.3
2020-Jan-17 15:16 215 0 gusting 3 3.3
2020-Jan-17 15:06 211 2 gusting 4 3.3
2020-Jan-17 14:56 232 5 gusting 9 3.9
2020-Jan-17 14:46 235 2 gusting 4 3.9
2020-Jan-17 14:36 228 4 gusting 7 3.9
2020-Jan-17 14:26 223 4 gusting 6 3.9
2020-Jan-17 14:16 254 2 gusting 4 3.9
2020-Jan-17 14:06 244 5 gusting 6 3.9
2020-Jan-17 13:56 225 6 gusting 8 4.4
2020-Jan-17 13:46 245 6 gusting 8 4.4
2020-Jan-17 13:36 246 6 gusting 11 4.4
2020-Jan-17 13:26 234 5 gusting 9 4.4
2020-Jan-17 13:16 230 3 gusting 6 5.0
2020-Jan-17 13:06 239 3 gusting 6 5.0
2020-Jan-17 12:56 252 3 gusting 6 5.0
2020-Jan-17 12:46 260 5 gusting 7 5.0
2020-Jan-17 12:36 253 5 gusting 11 5.0
2020-Jan-17 12:26 255 6 gusting 6 5.0
2020-Jan-17 12:16 244 6 gusting 10 5.0
2020-Jan-17 12:06 246 4 gusting 9 5.0
2020-Jan-17 11:56 260 5 gusting 10 5.0
2020-Jan-17 11:46 232 6 gusting 7 5.0
2020-Jan-17 11:36 229 6 gusting 12 5.0
2020-Jan-17 11:26 271 5 gusting 8 5.0
2020-Jan-17 11:16 233 4 gusting 9 5.0
2020-Jan-17 11:06 223 6 gusting 11 5.0
2020-Jan-17 10:56 267 5 gusting 10 5.0
2020-Jan-17 10:46 247 4 gusting 11 5.0
2020-Jan-17 10:36 254 5 gusting 9 5.0
2020-Jan-17 10:26 224 9 gusting 13 5.0
2020-Jan-17 10:16 246 6 gusting 11 5.0
2020-Jan-17 10:06 276 6 gusting 11 5.0
2020-Jan-17 09:56 276 7 gusting 15 5.0
2020-Jan-17 09:46 277 4 gusting 9 5.0
2020-Jan-17 09:36 270 6 gusting 13 5.0
2020-Jan-17 09:26 239 6 gusting 9 5.0
2020-Jan-17 09:16 278 6 gusting 13 5.0
2020-Jan-17 09:06 264 5 gusting 8 5.0
2020-Jan-17 08:56 255 6 gusting 13 5.0
2020-Jan-17 08:46 263 7 gusting 13 5.0
2020-Jan-17 08:36 277 8 gusting 13 5.0
2020-Jan-17 08:26 267 6 gusting 13 5.0
2020-Jan-17 08:16 271 7 gusting 10 5.0
2020-Jan-17 08:06 241 6 gusting 9 5.0
2020-Jan-17 07:56 257 8 gusting 13 5.0
2020-Jan-17 07:46 254 5 gusting 10 5.0
2020-Jan-17 07:36 270 5 gusting 9 5.0
2020-Jan-17 07:26 264 3 gusting 6 5.0
2020-Jan-17 07:16 255 3 gusting 11 5.0
2020-Jan-17 07:06 270 5 gusting 9 5.0
2020-Jan-17 06:56 270 6 gusting 10 5.0
2020-Jan-17 06:46 278 6 gusting 10 5.0
2020-Jan-17 06:36 237 4 gusting 7 5.0
2020-Jan-17 06:26 257 5 gusting 6 5.0
2020-Jan-17 06:16 262 4 gusting 8 5.0
2020-Jan-17 06:06 242 4 gusting 10 5.0
2020-Jan-17 05:56 269 4 gusting 8 5.0
2020-Jan-17 05:46 250 6 gusting 9 5.0
2020-Jan-17 05:36 262 5 gusting 10 5.0
2020-Jan-17 05:26 260 5 gusting 8 5.0
2020-Jan-17 05:16 253 6 gusting 8 5.0
2020-Jan-17 05:06 271 6 gusting 11 5.0
2020-Jan-17 04:56 290 8 gusting 11 5.0
2020-Jan-17 04:46 284 6 gusting 13 5.0
2020-Jan-17 04:36 270 6 gusting 11 5.0
2020-Jan-17 04:26 267 5 gusting 7 5.0
2020-Jan-17 04:16 281 9 gusting 15 5.0
2020-Jan-17 04:06 267 4 gusting 8 5.0
2020-Jan-17 03:56 260 3 gusting 10 5.0
2020-Jan-17 03:46 280 6 gusting 12 5.0
2020-Jan-17 03:36 274 5 gusting 13 5.0
2020-Jan-17 03:26 271 5 gusting 8 5.0
2020-Jan-17 03:16 253 6 gusting 9 5.0
2020-Jan-17 03:06 280 2 gusting 9 5.0
2020-Jan-17 02:56 282 6 gusting 10 5.6
2020-Jan-17 02:46 285 6 gusting 11 5.6
2020-Jan-17 02:36 257 6 gusting 10 5.6
2020-Jan-17 02:26 282 7 gusting 12 5.6
2020-Jan-17 02:16 275 8 gusting 12 5.6
2020-Jan-17 02:06 274 4 gusting 7 5.6
2020-Jan-17 01:56 250 4 gusting 8 5.6
2020-Jan-17 01:46 245 6 gusting 13 5.6
2020-Jan-17 01:36 274 7 gusting 13 5.6
2020-Jan-17 01:26 277 6 gusting 9 5.6
2020-Jan-17 01:16 275 5 gusting 11 5.6
2020-Jan-17 01:06 279 4 gusting 11 5.6
2020-Jan-17 00:56 276 3 gusting 9 5.6
2020-Jan-17 00:46 279 6 gusting 12 5.6
2020-Jan-17 00:36 266 6 gusting 10 5.6
2020-Jan-17 00:26 282 4 gusting 7 5.6
2020-Jan-17 00:16 278 6 gusting 18 5.6
2020-Jan-17 00:06 259 6 gusting 10 5.6
2020-Jan-16 23:56 275 6 gusting 9 5.6
2020-Jan-16 23:46 258 6 gusting 9 5.6
2020-Jan-16 23:36 280 4 gusting 8 6.1
2020-Jan-16 23:26 253 5 gusting 9 5.6
2020-Jan-16 23:16 255 5 gusting 9 6.1
2020-Jan-16 23:06 243 5 gusting 7 6.1
2020-Jan-16 22:56 267 5 gusting 8 6.1
2020-Jan-16 22:46 254 4 gusting 7 5.6
2020-Jan-16 22:36 252 6 gusting 10 5.6
2020-Jan-16 22:26 256 6 gusting 9 5.6
2020-Jan-16 22:16 274 2 gusting 6 5.6
2020-Jan-16 22:06 252 4 gusting 8 5.6
2020-Jan-16 21:56 235 4 gusting 6 5.6
2020-Jan-16 21:46 223 6 gusting 9 5.6
2020-Jan-16 21:36 260 7 gusting 12 5.6
2020-Jan-16 21:26 268 4 gusting 10 5.6
2020-Jan-16 21:16 275 6 gusting 10 5.6
2020-Jan-16 21:06 270 5 gusting 7 5.6
2020-Jan-16 20:56 265 6 gusting 10 5.6
2020-Jan-16 20:46 283 6 gusting 11 5.6
2020-Jan-16 20:36 255 3 gusting 7 5.6
2020-Jan-16 20:26 267 4 gusting 7 5.6
2020-Jan-16 20:16 276 3 gusting 8 5.0
2020-Jan-16 20:06 254 6 gusting 11 5.0
2020-Jan-16 19:56 276 9 gusting 16 5.6
2020-Jan-16 19:46 275 6 gusting 11 5.6
2020-Jan-16 19:36 263 3 gusting 12 5.6
2020-Jan-16 19:26 279 4 gusting 9 5.6
2020-Jan-16 19:16 269 10 gusting 14 5.6
2020-Jan-16 19:06 270 4 gusting 10 5.6
2020-Jan-16 18:56 261 6 gusting 9 5.6
2020-Jan-16 18:46 279 7 gusting 14 5.6
2020-Jan-16 18:36 266 8 gusting 11 5.6
2020-Jan-16 18:26 269 8 gusting 13 5.6
2020-Jan-16 18:16 280 6 gusting 11 5.6
2020-Jan-16 18:06 271 6 gusting 9 5.6
2020-Jan-16 17:56 275 5 gusting 9 5.0
2020-Jan-16 17:46 275 6 gusting 7 5.0
2020-Jan-16 17:36 260 5 gusting 11 5.0
2020-Jan-16 17:26 274 6 gusting 12 5.0
2020-Jan-16 17:16 265 3 gusting 8 5.0
2020-Jan-16 17:06 283 6 gusting 8 5.0
2020-Jan-16 16:56 265 7 gusting 13 5.0
2020-Jan-16 16:46 251 6 gusting 13 5.0
2020-Jan-16 16:36 272 6 gusting 11 5.0
2020-Jan-16 16:26 265 5 gusting 7 5.0
2020-Jan-16 16:16 275 5 gusting 8 5.0
2020-Jan-16 16:06 273 4 gusting 10 5.6
2020-Jan-16 15:56 258 5 gusting 8 5.6
2020-Jan-16 15:46 242 5 gusting 8 5.6
2020-Jan-16 15:36 266 6 gusting 10 5.6
2020-Jan-16 15:26 272 6 gusting 8 5.6
2020-Jan-16 15:16 263 6 gusting 13 5.6
2020-Jan-16 15:06 263 7 gusting 13 5.6
2020-Jan-16 14:56 270 5 gusting 13 5.6
2020-Jan-16 14:46 270 8 gusting 13 5.6
2020-Jan-16 14:36 273 6 gusting 12 5.6
2020-Jan-16 14:26 281 6 gusting 11 5.6
2020-Jan-16 14:16 269 7 gusting 12 5.6
2020-Jan-16 14:06 259 6 gusting 11 5.6
2020-Jan-16 13:56 260 6 gusting 12 5.6
2020-Jan-16 13:46 249 7 gusting 13 5.6
2020-Jan-16 13:36 276 12 gusting 15 5.6
2020-Jan-16 13:26 280 6 gusting 12 5.6
2020-Jan-16 13:16 258 7 gusting 11 5.6
2020-Jan-16 13:06 279 7 gusting 16 5.6
2020-Jan-16 12:56 251 9 gusting 14 5.6
2020-Jan-16 12:46 255 9 gusting 13 5.6
2020-Jan-16 12:36 278 9 gusting 19 5.6
2020-Jan-16 12:26 259 9 gusting 16 5.6
2020-Jan-16 12:16 243 6 gusting 10 5.6
2020-Jan-16 12:06 268 6 gusting 12 5.6
2020-Jan-16 11:56 284 7 gusting 15 5.6
2020-Jan-16 11:46 277 6 gusting 9 5.6
2020-Jan-16 11:36 288 10 gusting 16 5.6
2020-Jan-16 11:26 281 6 gusting 13 5.6
2020-Jan-16 11:16 286 9 gusting 13 5.6
2020-Jan-16 11:06 276 7 gusting 13 5.6
2020-Jan-16 10:56 272 9 gusting 13 5.6
2020-Jan-16 10:46 265 11 gusting 16 5.6
2020-Jan-16 10:36 270 7 gusting 14 5.6
2020-Jan-16 10:26 272 6 gusting 14 5.6
2020-Jan-16 10:16 256 6 gusting 13 5.6
2020-Jan-16 10:06 296 4 gusting 8 5.6
2020-Jan-16 09:56 303 8 gusting 12 5.6
2020-Jan-16 09:46 301 6 gusting 9 5.0
2020-Jan-16 09:36 300 5 gusting 10 5.0
2020-Jan-16 09:26 305 6 gusting 11 5.0
2020-Jan-16 09:16 306 6 gusting 11 5.0
2020-Jan-16 09:06 258 5 gusting 9 5.0
2020-Jan-16 08:56 306 4 gusting 11 5.0
2020-Jan-16 08:46 274 6 gusting 14 4.4
2020-Jan-16 08:36 302 6 gusting 10 4.4
2020-Jan-16 08:26 296 5 gusting 10 4.4
2020-Jan-16 08:16 295 6 gusting 10 4.4
2020-Jan-16 08:06 308 9 gusting 13 5.0
2020-Jan-16 07:56 309 10 gusting 13 5.0
2020-Jan-16 07:46 313 7 gusting 11 5.0
2020-Jan-16 07:36 319 8 gusting 13 5.0
2020-Jan-16 07:26 308 11 gusting 18 5.0
2020-Jan-16 07:16 319 8 gusting 13 5.0
2020-Jan-16 07:06 317 8 gusting 12 5.0
2020-Jan-16 06:56 319 6 gusting 13 5.0
2020-Jan-16 06:46 311 11 gusting 17 5.6
2020-Jan-16 06:36 324 13 gusting 19 6.1
2020-Jan-16 06:26 310 9 gusting 13 6.7
2020-Jan-16 06:16 312 11 gusting 22 6.7
2020-Jan-16 06:06 311 9 gusting 19 6.7
2020-Jan-16 05:56 301 7 gusting 12 6.7
2020-Jan-16 05:46 301 6 gusting 13 6.7
2020-Jan-16 05:36 292 6 gusting 14 6.7
2020-Jan-16 05:26 300 6 gusting 12 7.2
2020-Jan-16 05:16 287 7 gusting 13 7.2
2020-Jan-16 05:06 263 6 gusting 17 7.2
2020-Jan-16 04:56 252 8 gusting 14 6.7
2020-Jan-16 04:46 231 9 gusting 13 6.7
2020-Jan-16 04:36 232 7 gusting 11 6.7
2020-Jan-16 04:26 264 6 gusting 13 6.7
2020-Jan-16 04:16 254 6 gusting 13 6.7
2020-Jan-16 04:06 239 6 gusting 11 6.7
2020-Jan-16 03:56 251 7 gusting 10 6.7
2020-Jan-16 03:46 227 10 gusting 15 6.7
2020-Jan-16 03:36 239 11 gusting 14 6.7
2020-Jan-16 03:26 226 9 gusting 13 7.2
2020-Jan-16 03:16 262 9 gusting 13 7.2
2020-Jan-16 03:06 234 9 gusting 13 7.2
2020-Jan-16 02:56 256 6 gusting 13 7.2
2020-Jan-16 02:46 232 8 gusting 13 7.2
2020-Jan-16 02:36 246 8 gusting 15 7.2
2020-Jan-16 02:26 216 8 gusting 14 7.8
2020-Jan-16 02:16 220 12 gusting 17 7.8
2020-Jan-16 02:06 223 9 gusting 15 7.8
2020-Jan-16 01:56 229 7 gusting 14 8.3
2020-Jan-16 01:46 231 7 gusting 13 8.3
2020-Jan-16 01:36 235 7 gusting 19 8.3
2020-Jan-16 01:26 233 9 gusting 17 8.3
2020-Jan-16 01:16 232 5 gusting 10 8.3
2020-Jan-16 01:06 220 7 gusting 15 8.3
2020-Jan-16 00:56 235 6 gusting 13 8.3
2020-Jan-16 00:46 219 10 gusting 15 8.3
2020-Jan-16 00:36 237 9 gusting 13 8.3
2020-Jan-16 00:26 220 11 gusting 15 8.9
2020-Jan-16 00:16 222 8 gusting 15 8.9
2020-Jan-16 00:06 225 10 gusting 18 8.9
2020-Jan-15 23:56 227 10 gusting 14 8.9
2020-Jan-15 23:46 227 11 gusting 18 8.3
2020-Jan-15 23:36 226 11 gusting 14 8.3
2020-Jan-15 23:26 235 7 gusting 11 8.3
2020-Jan-15 23:16 229 8 gusting 13 8.3
2020-Jan-15 23:06 237 9 gusting 14 8.3
2020-Jan-15 22:56 248 9 gusting 14 8.3
2020-Jan-15 22:46 237 9 gusting 16 8.3
2020-Jan-15 22:36 258 9 gusting 12 8.3
2020-Jan-15 22:26 237 7 gusting 16 8.3
2020-Jan-15 22:16 243 7 gusting 16 8.3
2020-Jan-15 22:06 239 7 gusting 12 8.3
2020-Jan-15 21:56 241 6 gusting 13 8.3
2020-Jan-15 21:46 227 7 gusting 12 8.3
2020-Jan-15 21:36 241 11 gusting 16 8.3
2020-Jan-15 21:26 222 7 gusting 13 8.3
2020-Jan-15 21:16 232 11 gusting 19 8.3
2020-Jan-15 21:06 241 9 gusting 15 8.3
2020-Jan-15 20:56 238 7 gusting 15 8.3
2020-Jan-15 20:46 225 8 gusting 12 8.3
2020-Jan-15 20:36 238 7 gusting 12 8.3
2020-Jan-15 20:26 234 11 gusting 19 7.8
2020-Jan-15 20:16 250 9 gusting 12 7.8
2020-Jan-15 20:06 222 10 gusting 17 7.8
2020-Jan-15 19:56 230 11 gusting 17 7.8
2020-Jan-15 19:46 235 7 gusting 13 7.8
2020-Jan-15 19:36 224 9 gusting 14 7.8
2020-Jan-15 19:26 221 7 gusting 14 8.3
2020-Jan-15 19:16 235 13 gusting 18 7.8
2020-Jan-15 19:06 240 8 gusting 12 7.8
2020-Jan-15 18:56 220 11 gusting 15 7.8
2020-Jan-15 18:46 248 5 gusting 19 7.8
2020-Jan-15 18:36 254 7 gusting 14 7.8
2020-Jan-15 18:26 225 10 gusting 15 7.2
2020-Jan-15 18:16 227 9 gusting 13 7.8
2020-Jan-15 18:06 230 8 gusting 20 7.8